Time;durP1;ratioP1;P1;durP2;ratioP2;P2;SDS_P1;SDS_P2;PMS_P1;PMS_P2;Temp;Humidity;BMP_temperature;BMP_pressure;BME280_temperature;BME280_humidity;BME280_pressure;Samples;Min_cycle;Max_cycle;Signal;HPM_P1;HPM_P2
2022/02/25 00:01:04;;;;;;;3.13;1.10;;;;;;;;;;5034811;28;20469;-78
2022/02/25 00:03:29;;;;;;;2.15;0.70;;;;;;;;;;5034605;28;20488;-77
2022/02/25 00:05:54;;;;;;;2.06;0.90;;;;;;;;;;5034961;28;20376;-77
2022/02/25 00:08:19;;;;;;;2.22;1.00;;;;;;;;;;5034967;28;20076;-77
2022/02/25 00:10:44;;;;;;;3.53;1.00;;;;;;;;;;5033519;28;20071;-77
2022/02/25 00:13:09;;;;;;;2.05;0.90;;;;;;;;;;5034311;28;20503;-78
2022/02/25 00:15:35;;;;;;;2.60;1.10;;;;;;;;;;5034795;28;20092;-78
2022/02/25 00:18:00;;;;;;;3.55;1.48;;;;;;;;;;5034602;28;20017;-77
2022/02/25 00:20:25;;;;;;;2.45;1.23;;;;;;;;;;5034403;28;20473;-78
2022/02/25 00:22:50;;;;;;;5.38;1.48;;;;;;;;;;5034393;28;20013;-78
2022/02/25 00:25:15;;;;;;;2.25;1.15;;;;;;;;;;5035128;28;20400;-78
2022/02/25 00:27:42;;;;;;;3.75;1.77;;;;;;;;;;5035195;28;20025;-78
2022/02/25 00:30:09;;;;;;;4.93;1.35;;;;;;;;;;5035029;28;20059;-78
2022/02/25 00:32:34;;;;;;;2.30;1.20;;;;;;;;;;5033863;28;20025;-77
2022/02/25 00:35:00;;;;;;;2.15;1.20;;;;;;;;;;5035728;28;20063;-78
2022/02/25 00:37:25;;;;;;;2.70;1.17;;;;;;;;;;5034606;28;20021;-79
2022/02/25 00:39:50;;;;;;;3.00;1.25;;;;;;;;;;5036318;28;20028;-78
2022/02/25 00:42:15;;;;;;;3.47;1.30;;;;;;;;;;5035623;28;20032;-78
2022/02/25 00:44:40;;;;;;;5.22;1.52;;;;;;;;;;5034732;28;20087;-77
2022/02/25 00:47:06;;;;;;;3.35;1.33;;;;;;;;;;5036091;28;20615;-77
2022/02/25 00:49:31;;;;;;;2.10;1.25;;;;;;;;;;5036482;28;20028;-78
2022/02/25 00:51:57;;;;;;;7.70;1.45;;;;;;;;;;5036284;28;20025;-78
2022/02/25 00:54:22;;;;;;;1.98;1.10;;;;;;;;;;5039094;28;20109;-76
2022/02/25 00:56:47;;;;;;;1.90;1.10;;;;;;;;;;5050131;28;20022;-77
2022/02/25 00:59:12;;;;;;;4.47;1.13;;;;;;;;;;5055517;28;20116;-77
2022/02/25 01:01:37;;;;;;;2.65;1.27;;;;;;;;;;5041127;28;20391;-78
2022/02/25 01:04:03;;;;;;;3.17;1.30;;;;;;;;;;5051705;28;20040;-78
2022/02/25 01:06:28;;;;;;;4.55;1.65;;;;;;;;;;5053862;28;20025;-77
2022/02/25 01:08:53;;;;;;;2.95;1.27;;;;;;;;;;5052929;28;20014;-78
2022/02/25 01:11:19;;;;;;;2.20;1.20;;;;;;;;;;5047488;28;20056;-78
2022/02/25 01:13:44;;;;;;;2.72;1.38;;;;;;;;;;5055842;28;20026;-78
2022/02/25 01:16:09;;;;;;;2.75;1.42;;;;;;;;;;5053517;28;20018;-77
2022/02/25 01:18:34;;;;;;;4.47;1.48;;;;;;;;;;5051345;28;20017;-78
2022/02/25 01:21:00;;;;;;;2.40;1.27;;;;;;;;;;5039420;28;20451;-77
2022/02/25 01:23:25;;;;;;;4.05;1.30;;;;;;;;;;5033398;28;20542;-77
2022/02/25 01:25:50;;;;;;;5.25;2.00;;;;;;;;;;5032289;28;20025;-76
2022/02/25 01:28:15;;;;;;;3.03;1.38;;;;;;;;;;5033583;28;20018;-77
2022/02/25 01:30:41;;;;;;;4.35;1.67;;;;;;;;;;5032257;28;20530;-76
2022/02/25 01:33:06;;;;;;;5.35;1.85;;;;;;;;;;5031971;28;20036;-76
2022/02/25 01:35:31;;;;;;;4.32;2.17;;;;;;;;;;5033356;28;20591;-77
2022/02/25 01:37:56;;;;;;;3.72;1.90;;;;;;;;;;5034509;28;20017;-76
2022/02/25 01:40:22;;;;;;;2.88;1.60;;;;;;;;;;5034881;28;20017;-77
2022/02/25 01:42:48;;;;;;;3.67;1.77;;;;;;;;;;5044967;28;20085;-77
2022/02/25 01:45:14;;;;;;;4.45;1.75;;;;;;;;;;5034016;28;20024;-76
2022/02/25 01:47:39;;;;;;;4.65;2.95;;;;;;;;;;5032905;28;20013;-78
2022/02/25 01:50:05;;;;;;;5.00;2.47;;;;;;;;;;5033444;28;20010;-76
2022/02/25 01:52:30;;;;;;;5.28;2.00;;;;;;;;;;5032934;28;20033;-77
2022/02/25 01:54:55;;;;;;;4.35;1.90;;;;;;;;;;5031515;28;20036;-77
2022/02/25 01:57:20;;;;;;;2.90;1.63;;;;;;;;;;5033111;28;20047;-76
2022/02/25 01:59:46;;;;;;;4.65;2.05;;;;;;;;;;5033197;28;20013;-77
2022/02/25 02:02:11;;;;;;;2.67;1.63;;;;;;;;;;5032304;28;20034;-77
2022/02/25 02:04:36;;;;;;;5.03;1.60;;;;;;;;;;5032569;28;20396;-77
2022/02/25 02:07:02;;;;;;;3.40;1.70;;;;;;;;;;5033058;28;20025;-78
2022/02/25 02:09:27;;;;;;;4.05;1.75;;;;;;;;;;5032700;28;20039;-78
2022/02/25 02:11:53;;;;;;;4.13;2.03;;;;;;;;;;5032292;28;20068;-77
2022/02/25 02:14:19;;;;;;;3.83;2.10;;;;;;;;;;5032629;28;20045;-77
2022/02/25 02:16:45;;;;;;;3.92;1.90;;;;;;;;;;5032550;28;20096;-77
2022/02/25 02:19:11;;;;;;;4.45;2.45;;;;;;;;;;5032632;28;20080;-77
2022/02/25 02:21:39;;;;;;;3.35;1.77;;;;;;;;;;5031183;28;20025;-78
2022/02/25 02:24:04;;;;;;;4.38;2.10;;;;;;;;;;5032286;28;20045;-78
2022/02/25 02:26:29;;;;;;;2.80;1.52;;;;;;;;;;5032357;28;20064;-77
2022/02/25 02:28:55;;;;;;;6.75;2.45;;;;;;;;;;5032312;28;20021;-78
2022/02/25 02:31:20;;;;;;;3.63;1.70;;;;;;;;;;5032251;28;20046;-78
2022/02/25 02:33:45;;;;;;;5.93;1.80;;;;;;;;;;5032064;28;20026;-77
2022/02/25 02:36:11;;;;;;;4.50;2.40;;;;;;;;;;5032098;28;20469;-77
2022/02/25 02:38:36;;;;;;;4.25;2.30;;;;;;;;;;5032506;28;20140;-77
2022/02/25 02:41:02;;;;;;;4.70;1.73;;;;;;;;;;5032446;28;20071;-76
2022/02/25 02:43:27;;;;;;;5.60;2.10;;;;;;;;;;5032055;28;20014;-78
2022/02/25 02:45:52;;;;;;;3.80;1.65;;;;;;;;;;5032177;28;20020;-78
2022/02/25 02:48:18;;;;;;;4.57;2.20;;;;;;;;;;5032446;28;20017;-76
2022/02/25 02:50:43;;;;;;;4.15;1.90;;;;;;;;;;5032309;28;20558;-78
2022/02/25 02:53:09;;;;;;;3.80;2.13;;;;;;;;;;5032035;28;20025;-78
2022/02/25 02:55:34;;;;;;;7.10;2.60;;;;;;;;;;5032529;28;20017;-78
2022/02/25 02:57:59;;;;;;;4.10;1.75;;;;;;;;;;5032164;28;20108;-76
2022/02/25 03:00:25;;;;;;;4.60;2.33;;;;;;;;;;5036067;28;20053;-77
2022/02/25 03:02:50;;;;;;;5.15;2.45;;;;;;;;;;5035207;28;20056;-77
2022/02/25 03:05:18;;;;;;;5.18;2.75;;;;;;;;;;5036837;28;20029;-77
2022/02/25 03:07:44;;;;;;;3.50;1.90;;;;;;;;;;5036958;28;20025;-78
2022/02/25 03:10:10;;;;;;;8.25;2.20;;;;;;;;;;5037065;28;20021;-77
2022/02/25 03:12:36;;;;;;;6.75;2.22;;;;;;;;;;5036283;28;20092;-78
2022/02/25 03:15:01;;;;;;;5.97;2.00;;;;;;;;;;5036047;28;20100;-77
2022/02/25 03:17:27;;;;;;;4.50;1.92;;;;;;;;;;5036082;28;20021;-78
2022/02/25 03:19:52;;;;;;;5.03;1.92;;;;;;;;;;5036123;28;20021;-78
2022/02/25 03:22:17;;;;;;;5.90;2.00;;;;;;;;;;5035630;28;20028;-78
2022/02/25 03:24:42;;;;;;;7.82;1.77;;;;;;;;;;5036024;28;20018;-78
2022/02/25 03:27:08;;;;;;;4.50;1.83;;;;;;;;;;5036377;28;20010;-78
2022/02/25 03:29:33;;;;;;;4.40;1.30;;;;;;;;;;5036530;28;20022;-78
2022/02/25 03:31:58;;;;;;;4.78;2.08;;;;;;;;;;5037131;28;20465;-79
2022/02/25 03:34:23;;;;;;;4.90;1.42;;;;;;;;;;5036151;28;20056;-78
2022/02/25 03:36:49;;;;;;;3.70;1.42;;;;;;;;;;5036167;28;20043;-77
2022/02/25 03:39:14;;;;;;;8.50;1.50;;;;;;;;;;5036338;28;20022;-77
2022/02/25 03:41:39;;;;;;;3.22;1.50;;;;;;;;;;5035303;28;20029;-78
2022/02/25 03:44:04;;;;;;;2.35;1.17;;;;;;;;;;5035476;28;20397;-76
2022/02/25 03:46:30;;;;;;;6.53;1.77;;;;;;;;;;5035896;28;20070;-78
2022/02/25 03:48:55;;;;;;;2.47;1.30;;;;;;;;;;5036116;28;20018;-78
2022/02/25 03:51:21;;;;;;;3.95;1.80;;;;;;;;;;5033801;28;20024;-77
2022/02/25 03:53:47;;;;;;;2.83;1.75;;;;;;;;;;5035283;28;20105;-76
2022/02/25 03:56:12;;;;;;;3.90;1.77;;;;;;;;;;5035784;28;20025;-76
2022/02/25 03:58:38;;;;;;;7.53;2.47;;;;;;;;;;5034334;28;20369;-76
2022/02/25 04:01:03;;;;;;;5.18;2.35;;;;;;;;;;5035840;28;20064;-77
2022/02/25 04:03:28;;;;;;;8.05;1.98;;;;;;;;;;5035744;28;20030;-76
2022/02/25 04:05:54;;;;;;;5.53;1.83;;;;;;;;;;5035880;28;20021;-77
2022/02/25 04:08:19;;;;;;;7.43;2.80;;;;;;;;;;5035805;28;20040;-78
2022/02/25 04:10:44;;;;;;;5.43;2.30;;;;;;;;;;5035531;28;20405;-78
2022/02/25 04:13:09;;;;;;;4.75;2.30;;;;;;;;;;5035238;28;20021;-77
2022/02/25 04:15:37;;;;;;;4.45;2.38;;;;;;;;;;5035992;28;20026;-78
2022/02/25 04:18:03;;;;;;;6.05;2.28;;;;;;;;;;5035878;28;20033;-77
2022/02/25 04:20:28;;;;;;;9.68;2.30;;;;;;;;;;5036147;28;20461;-78
2022/02/25 04:22:53;;;;;;;5.77;2.40;;;;;;;;;;5035691;28;20026;-76
2022/02/25 04:25:18;;;;;;;6.97;2.00;;;;;;;;;;5036175;28;20028;-77
2022/02/25 04:27:44;;;;;;;3.97;2.47;;;;;;;;;;5034850;28;20100;-78
2022/02/25 04:30:10;;;;;;;5.43;2.13;;;;;;;;;;5036164;28;20025;-76
2022/02/25 04:32:35;;;;;;;3.95;1.95;;;;;;;;;;5035936;28;20014;-77
2022/02/25 04:35:00;;;;;;;6.60;2.00;;;;;;;;;;5035701;28;20018;-77
2022/02/25 04:37:26;;;;;;;6.15;2.63;;;;;;;;;;5035530;28;20494;-78
2022/02/25 04:39:51;;;;;;;6.78;1.98;;;;;;;;;;5034138;28;20024;-76
2022/02/25 04:42:16;;;;;;;4.15;1.90;;;;;;;;;;5034783;28;20021;-76
2022/02/25 04:44:41;;;;;;;5.78;2.08;;;;;;;;;;5034457;28;20079;-77
2022/02/25 04:47:07;;;;;;;4.22;2.08;;;;;;;;;;5034401;28;20021;-76
2022/02/25 04:49:32;;;;;;;5.00;2.53;;;;;;;;;;5034401;28;20404;-77
2022/02/25 04:51:57;;;;;;;6.55;2.40;;;;;;;;;;5034085;28;20017;-78
2022/02/25 04:54:22;;;;;;;7.15;2.40;;;;;;;;;;5034317;28;20028;-77
2022/02/25 04:56:48;;;;;;;4.65;2.50;;;;;;;;;;5034248;28;20473;-77
2022/02/25 04:59:13;;;;;;;4.60;2.28;;;;;;;;;;5036974;28;20152;-77
2022/02/25 05:01:38;;;;;;;4.45;2.28;;;;;;;;;;5035408;28;20033;-76
2022/02/25 05:04:04;;;;;;;4.32;2.22;;;;;;;;;;5037324;28;20142;-76
2022/02/25 05:06:29;;;;;;;2.92;1.75;;;;;;;;;;5036890;28;20024;-76
2022/02/25 05:08:54;;;;;;;5.47;1.92;;;;;;;;;;5035558;28;20483;-77
2022/02/25 05:11:19;;;;;;;4.00;1.90;;;;;;;;;;5033460;28;20026;-77
2022/02/25 05:13:44;;;;;;;6.30;2.22;;;;;;;;;;5035736;28;20021;-76
2022/02/25 05:21:51;;;;;;;3.08;1.20;;;;;;;;;;5032594;28;20481;-76
2022/02/25 05:24:17;;;;;;;4.63;1.95;;;;;;;;;;5032521;28;20032;-77
2022/02/25 05:26:42;;;;;;;2.65;1.45;;;;;;;;;;5032826;28;20150;-77
2022/02/25 05:29:07;;;;;;;4.38;1.60;;;;;;;;;;5033769;28;20017;-77
2022/02/25 05:31:33;;;;;;;5.32;1.55;;;;;;;;;;5033589;28;20068;-77
2022/02/25 05:33:59;;;;;;;4.43;1.40;;;;;;;;;;5033368;28;20017;-78
2022/02/25 05:36:24;;;;;;;3.83;1.50;;;;;;;;;;5033637;28;20017;-76
2022/02/25 05:38:49;;;;;;;3.80;1.25;;;;;;;;;;5033458;28;20385;-77
2022/02/25 05:41:15;;;;;;;3.33;1.40;;;;;;;;;;5033093;28;20101;-78
2022/02/25 05:43:40;;;;;;;3.10;1.30;;;;;;;;;;5032567;28;20260;-78
2022/02/25 05:46:05;;;;;;;6.32;1.70;;;;;;;;;;5031677;28;20508;-77
2022/02/25 05:48:31;;;;;;;5.63;1.33;;;;;;;;;;5033205;28;20017;-77
2022/02/25 05:50:56;;;;;;;1.65;0.65;;;;;;;;;;5033285;28;20037;-77
2022/02/25 05:53:21;;;;;;;4.87;1.37;;;;;;;;;;5032890;28;20017;-77
2022/02/25 05:55:46;;;;;;;4.97;1.13;;;;;;;;;;5032645;28;20543;-77
2022/02/25 05:58:11;;;;;;;2.50;1.10;;;;;;;;;;5032781;28;20029;-78
2022/02/25 06:00:37;;;;;;;2.57;1.40;;;;;;;;;;5031491;28;20043;-77
2022/02/25 06:03:02;;;;;;;5.07;1.07;;;;;;;;;;5032541;28;20030;-78
2022/02/25 06:05:27;;;;;;;4.57;1.30;;;;;;;;;;5032196;28;20053;-78
2022/02/25 06:07:52;;;;;;;4.55;1.15;;;;;;;;;;5032781;28;20388;-78
2022/02/25 06:10:17;;;;;;;3.58;1.00;;;;;;;;;;5032762;28;20018;-77
2022/02/25 06:12:43;;;;;;;3.63;0.83;;;;;;;;;;5032256;28;20025;-77
2022/02/25 06:15:08;;;;;;;3.23;1.10;;;;;;;;;;5033243;28;20469;-78
2022/02/25 06:17:41;;;;;;;2.20;0.97;;;;;;;;;;5031549;28;20334;-77
2022/02/25 06:20:06;;;;;;;4.25;1.00;;;;;;;;;;5032695;28;20028;-78
2022/02/25 06:22:32;;;;;;;3.55;1.15;;;;;;;;;;5032552;28;20393;-77
2022/02/25 06:24:57;;;;;;;3.22;1.38;;;;;;;;;;5030743;28;20075;-78
2022/02/25 06:27:22;;;;;;;5.10;1.15;;;;;;;;;;5032685;28;20492;-78
2022/02/25 06:29:47;;;;;;;2.55;1.00;;;;;;;;;;5031682;28;20017;-76
2022/02/25 06:32:13;;;;;;;4.22;1.27;;;;;;;;;;5032875;28;20025;-78
2022/02/25 06:34:39;;;;;;;2.40;1.13;;;;;;;;;;5033106;28;20021;-77
2022/02/25 06:37:04;;;;;;;10.85;1.15;;;;;;;;;;5031972;28;20025;-76
2022/02/25 06:39:29;;;;;;;3.15;1.20;;;;;;;;;;5033224;28;20082;-79
2022/02/25 06:41:54;;;;;;;4.10;1.95;;;;;;;;;;5032327;28;20473;-78
2022/02/25 06:44:20;;;;;;;5.45;1.38;;;;;;;;;;5032306;28;20021;-77
2022/02/25 06:46:45;;;;;;;6.85;1.50;;;;;;;;;;5032455;28;20017;-77
2022/02/25 06:49:11;;;;;;;5.85;1.33;;;;;;;;;;5032273;28;20017;-78
2022/02/25 06:51:36;;;;;;;0.98;0.50;;;;;;;;;;5032667;28;20017;-77
2022/02/25 06:54:02;;;;;;;2.58;1.05;;;;;;;;;;5032321;28;20083;-77
2022/02/25 06:56:27;;;;;;;5.28;0.95;;;;;;;;;;5032390;28;20067;-78
2022/02/25 06:58:53;;;;;;;9.00;2.17;;;;;;;;;;5032781;28;20461;-77
2022/02/25 07:01:18;;;;;;;3.35;1.17;;;;;;;;;;5031026;28;20606;-78
2022/02/25 07:03:43;;;;;;;5.38;1.42;;;;;;;;;;5032377;28;20032;-77
2022/02/25 07:06:09;;;;;;;3.65;1.60;;;;;;;;;;5032223;28;20018;-77
2022/02/25 07:08:34;;;;;;;2.35;1.45;;;;;;;;;;5031245;28;20013;-77
2022/02/25 07:10:59;;;;;;;7.60;1.70;;;;;;;;;;5032394;28;20021;-77
2022/02/25 07:13:24;;;;;;;4.47;1.90;;;;;;;;;;5030423;28;20079;-78
2022/02/25 07:15:50;;;;;;;3.95;1.40;;;;;;;;;;5032080;28;20022;-76
2022/02/25 07:18:16;;;;;;;4.85;1.75;;;;;;;;;;5032079;28;20017;-77
2022/02/25 07:20:44;;;;;;;3.72;1.60;;;;;;;;;;5031720;28;20488;-77
2022/02/25 07:23:10;;;;;;;7.15;1.70;;;;;;;;;;5031881;28;20013;-76
2022/02/25 07:25:35;;;;;;;4.47;2.10;;;;;;;;;;5031734;28;20052;-76
2022/02/25 07:28:00;;;;;;;3.92;1.80;;;;;;;;;;5031723;28;20117;-78
2022/02/25 07:30:28;;;;;;;3.72;1.80;;;;;;;;;;5030829;28;20063;-77
2022/02/25 07:32:53;;;;;;;6.05;1.88;;;;;;;;;;5032018;28;20022;-80
2022/02/25 07:35:18;;;;;;;4.05;2.03;;;;;;;;;;5031855;28;20028;-78
2022/02/25 07:37:43;;;;;;;6.25;2.15;;;;;;;;;;5030736;28;20026;-78
2022/02/25 07:40:10;;;;;;;4.40;2.25;;;;;;;;;;5031757;28;20029;-77
2022/02/25 07:42:36;;;;;;;3.92;1.83;;;;;;;;;;5031371;28;20485;-78
2022/02/25 07:45:01;;;;;;;6.45;2.25;;;;;;;;;;5031711;28;20035;-78
2022/02/25 07:47:26;;;;;;;10.93;2.88;;;;;;;;;;5034402;28;20025;-76
2022/02/25 07:49:53;;;;;;;3.28;1.35;;;;;;;;;;5035738;28;20024;-77
2022/02/25 07:52:18;;;;;;;5.60;1.85;;;;;;;;;;5033776;28;20407;-77
2022/02/25 07:54:44;;;;;;;5.68;1.90;;;;;;;;;;5034067;28;20112;-78
2022/02/25 07:57:09;;;;;;;5.10;1.70;;;;;;;;;;5035013;28;20025;-78
2022/02/25 07:59:34;;;;;;;4.75;2.05;;;;;;;;;;5035269;28;20500;-77
2022/02/25 08:02:00;;;;;;;2.67;1.38;;;;;;;;;;5034907;28;20104;-76
2022/02/25 08:04:25;;;;;;;10.77;2.55;;;;;;;;;;5035977;28;20018;-76
2022/02/25 08:06:52;;;;;;;3.38;1.65;;;;;;;;;;5035498;28;20021;-77
2022/02/25 08:09:17;;;;;;;8.40;2.17;;;;;;;;;;5034737;28;20100;-77
2022/02/25 08:11:43;;;;;;;8.07;1.92;;;;;;;;;;5033902;28;20068;-80
2022/02/25 08:14:08;;;;;;;6.18;2.45;;;;;;;;;;5034305;28;20025;-79
2022/02/25 08:16:33;;;;;;;6.53;1.65;;;;;;;;;;5035059;28;20093;-77
2022/02/25 08:18:58;;;;;;;9.82;2.28;;;;;;;;;;5034633;28;20452;-77
2022/02/25 08:21:24;;;;;;;2.20;0.90;;;;;;;;;;5034760;28;20477;-78
2022/02/25 08:23:49;;;;;;;5.95;2.50;;;;;;;;;;5035393;28;20380;-77
2022/02/25 08:26:14;;;;;;;7.95;2.35;;;;;;;;;;5034565;28;20093;-78
2022/02/25 08:28:40;;;;;;;5.53;2.45;;;;;;;;;;5034492;28;20013;-77
2022/02/25 08:31:11;;;;;;;8.93;1.83;;;;;;;;;;5035068;28;20053;-79
2022/02/25 08:33:36;;;;;;;5.97;1.88;;;;;;;;;;5034239;28;20040;-78
2022/02/25 08:36:01;;;;;;;5.45;1.58;;;;;;;;;;5033071;28;20026;-78
2022/02/25 08:38:27;;;;;;;4.90;1.45;;;;;;;;;;5034254;28;20384;-78
2022/02/25 08:40:52;;;;;;;10.18;2.10;;;;;;;;;;5033185;28;20123;-78
2022/02/25 08:43:17;;;;;;;5.93;1.88;;;;;;;;;;5033174;28;20389;-78
2022/02/25 08:45:44;;;;;;;5.50;1.83;;;;;;;;;;5034503;28;20043;-80
2022/02/25 08:48:11;;;;;;;9.23;1.92;;;;;;;;;;5033576;28;20036;-78
2022/02/25 08:50:36;;;;;;;5.63;2.03;;;;;;;;;;5034771;28;20489;-78
2022/02/25 08:53:02;;;;;;;4.20;1.20;;;;;;;;;;5033875;28;20024;-79
2022/02/25 08:55:27;;;;;;;12.57;1.45;;;;;;;;;;5034336;28;20026;-78
2022/02/25 08:57:52;;;;;;;4.53;1.42;;;;;;;;;;5033901;28;20028;-78
2022/02/25 09:00:20;;;;;;;4.95;1.83;;;;;;;;;;5036034;28;20028;-76
2022/02/25 09:02:45;;;;;;;3.90;1.42;;;;;;;;;;5033729;28;20048;-79
2022/02/25 09:05:10;;;;;;;4.13;1.30;;;;;;;;;;5035162;28;20411;-79
2022/02/25 09:07:36;;;;;;;1.27;0.75;;;;;;;;;;5034751;28;20067;-78
2022/02/25 09:10:02;;;;;;;7.40;1.40;;;;;;;;;;5035174;28;20490;-78
2022/02/25 09:12:28;;;;;;;1.35;0.57;;;;;;;;;;5034574;28;20151;-77
2022/02/25 09:14:54;;;;;;;7.50;2.05;;;;;;;;;;5034215;28;20484;-78
2022/02/25 09:17:19;;;;;;;6.97;1.60;;;;;;;;;;5034754;28;20039;-77
2022/02/25 09:19:45;;;;;;;6.53;1.38;;;;;;;;;;5034706;28;20473;-77
2022/02/25 09:22:10;;;;;;;4.55;1.98;;;;;;;;;;5034538;28;20192;-78
2022/02/25 09:24:36;;;;;;;5.45;1.70;;;;;;;;;;5035513;28;20504;-79
2022/02/25 09:27:01;;;;;;;4.40;1.55;;;;;;;;;;5033451;28;20032;-77
2022/02/25 09:29:26;;;;;;;4.85;1.80;;;;;;;;;;5034631;28;20022;-78
2022/02/25 09:31:51;;;;;;;5.40;1.30;;;;;;;;;;5033760;28;20091;-78
2022/02/25 09:34:17;;;;;;;1.80;0.80;;;;;;;;;;5033456;28;20036;-78
2022/02/25 09:36:43;;;;;;;3.67;1.38;;;;;;;;;;5032095;28;20028;-78
2022/02/25 09:39:10;;;;;;;3.80;1.38;;;;;;;;;;5032939;28;20079;-79
2022/02/25 09:41:36;;;;;;;6.07;1.52;;;;;;;;;;5033012;28;20037;-77
2022/02/25 09:44:02;;;;;;;4.15;1.30;;;;;;;;;;5033093;28;20013;-77
2022/02/25 09:46:27;;;;;;;5.10;2.00;;;;;;;;;;5031874;28;20025;-78
2022/02/25 09:48:52;;;;;;;2.97;1.20;;;;;;;;;;5033053;28;20074;-78
2022/02/25 09:51:17;;;;;;;5.88;1.27;;;;;;;;;;5033048;28;20025;-77
2022/02/25 09:53:42;;;;;;;11.65;2.33;;;;;;;;;;5031307;28;20491;-78
2022/02/25 09:56:07;;;;;;;7.40;1.30;;;;;;;;;;5031418;28;20028;-77
2022/02/25 09:58:33;;;;;;;8.52;1.50;;;;;;;;;;5032962;28;20492;-78
2022/02/25 10:00:58;;;;;;;4.07;1.00;;;;;;;;;;5032742;28;20067;-78
2022/02/25 10:03:29;;;;;;;5.25;1.35;;;;;;;;;;5032656;28;20025;-77
2022/02/25 10:06:02;;;;;;;3.13;1.45;;;;;;;;;;5031779;28;20188;-78
2022/02/25 10:08:27;;;;;;;6.30;1.40;;;;;;;;;;5032924;28;20026;-76
2022/02/25 10:10:54;;;;;;;1.80;0.57;;;;;;;;;;5033303;28;20032;-78
2022/02/25 10:13:20;;;;;;;3.28;1.23;;;;;;;;;;5032811;28;20024;-77
2022/02/25 10:15:47;;;;;;;3.65;1.20;;;;;;;;;;5033832;28;20022;-77
2022/02/25 10:18:17;;;;;;;7.35;1.40;;;;;;;;;;5032429;28;20075;-78
2022/02/25 10:20:44;;;;;;;7.00;1.30;;;;;;;;;;5032572;28;20033;-77
2022/02/25 10:23:24;;;;;;;6.00;1.58;;;;;;;;;;5031291;28;20037;-79
2022/02/25 10:25:50;;;;;;;6.90;1.08;;;;;;;;;;5032480;28;20515;-78
2022/02/25 10:28:24;;;;;;;7.43;2.20;;;;;;;;;;5032635;28;20045;-76
2022/02/25 10:30:49;;;;;;;4.35;0.70;;;;;;;;;;5032712;28;20029;-79
2022/02/25 10:33:15;;;;;;;6.13;1.52;;;;;;;;;;5034732;28;20393;-79
2022/02/25 10:35:40;;;;;;;5.80;1.55;;;;;;;;;;5031476;28;20502;-79
2022/02/25 10:38:05;;;;;;;5.82;1.70;;;;;;;;;;5032199;28;20491;-79
2022/02/25 10:40:51;;;;;;;8.80;1.45;;;;;;;;;;5031172;28;20401;-77
2022/02/25 10:43:17;;;;;;;1.83;0.80;;;;;;;;;;5031944;28;20091;-79
2022/02/25 10:45:43;;;;;;;7.28;1.27;;;;;;;;;;5032278;28;20029;-79
2022/02/25 10:48:10;;;;;;;2.40;0.93;;;;;;;;;;5032373;28;20022;-79
2022/02/25 10:51:02;;;;;;;3.15;0.70;;;;;;;;;;5032395;28;20021;-78
2022/02/25 10:53:34;;;;;;;7.53;1.23;;;;;;;;;;5029299;28;20045;-78
2022/02/25 10:56:04;;;;;;;4.30;1.05;;;;;;;;;;5030674;28;20028;-78
2022/02/25 10:58:39;;;;;;;3.67;1.13;;;;;;;;;;5031701;28;20049;-77
2022/02/25 11:01:05;;;;;;;3.30;1.10;;;;;;;;;;5031985;28;20095;-77
2022/02/25 11:03:30;;;;;;;1.90;0.80;;;;;;;;;;5030167;28;20485;-79
2022/02/25 11:05:56;;;;;;;2.17;0.45;;;;;;;;;;5031777;28;20017;-78
2022/02/25 11:08:22;;;;;;;4.93;1.40;;;;;;;;;;5032241;28;20018;-79
2022/02/25 11:10:47;;;;;;;6.00;1.33;;;;;;;;;;5032175;28;20112;-78
2022/02/25 11:13:15;;;;;;;0.70;0.38;;;;;;;;;;5030345;28;20048;-79
2022/02/25 11:15:43;;;;;;;4.00;0.90;;;;;;;;;;5031860;28;20026;-77
2022/02/25 11:18:09;;;;;;;5.63;1.10;;;;;;;;;;5030572;28;20380;-78
2022/02/25 11:20:35;;;;;;;7.32;0.82;;;;;;;;;;5032274;28;20124;-78
2022/02/25 11:23:02;;;;;;;4.43;0.40;;;;;;;;;;5035179;28;20097;-78
2022/02/25 11:25:28;;;;;;;3.28;0.70;;;;;;;;;;5035500;28;20022;-77
2022/02/25 11:27:53;;;;;;;5.25;1.10;;;;;;;;;;5035736;28;20020;-78
2022/02/25 11:30:33;;;;;;;4.15;1.05;;;;;;;;;;5035577;28;20036;-78
2022/02/25 11:33:00;;;;;;;2.55;0.80;;;;;;;;;;5034906;28;20096;-78
2022/02/25 11:35:26;;;;;;;2.47;0.82;;;;;;;;;;5035220;28;20024;-78
2022/02/25 11:37:58;;;;;;;5.63;1.35;;;;;;;;;;5035365;28;20025;-78
2022/02/25 11:40:42;;;;;;;3.00;1.02;;;;;;;;;;5035477;28;20048;-78
2022/02/25 11:43:08;;;;;;;4.55;0.73;;;;;;;;;;5033876;28;20075;-79
2022/02/25 11:45:46;;;;;;;2.45;1.00;;;;;;;;;;5035383;28;20048;-78
2022/02/25 11:48:11;;;;;;;6.88;1.05;;;;;;;;;;5035111;28;20025;-79
2022/02/25 11:50:38;;;;;;;4.30;1.17;;;;;;;;;;5031696;28;20033;-78
2022/02/25 11:53:16;;;;;;;1.60;0.55;;;;;;;;;;5034496;28;20045;-78
2022/02/25 11:55:41;;;;;;;5.28;1.48;;;;;;;;;;5034922;28;20100;-79
2022/02/25 11:58:25;;;;;;;2.38;0.75;;;;;;;;;;5031863;28;20101;-79
2022/02/25 12:01:07;;;;;;;3.30;0.50;;;;;;;;;;5034752;28;20025;-79
2022/02/25 12:03:55;;;;;;;4.72;1.02;;;;;;;;;;5034641;28;20040;-79
2022/02/25 12:06:27;;;;;;;3.28;0.90;;;;;;;;;;5018989;28;20018;-78
2022/02/25 12:08:58;;;;;;;4.82;0.82;;;;;;;;;;5034229;28;20060;-78
2022/02/25 12:11:27;;;;;;;3.50;1.35;;;;;;;;;;5034512;28;20092;-79
2022/02/25 12:13:53;;;;;;;3.92;0.90;;;;;;;;;;5034172;28;20021;-80
2022/02/25 12:16:29;;;;;;;8.63;1.23;;;;;;;;;;5034625;28;20017;-78
2022/02/25 12:19:04;;;;;;;2.25;0.80;;;;;;;;;;5034813;28;20499;-79
2022/02/25 12:21:40;;;;;;;4.68;1.10;;;;;;;;;;5033782;28;20025;-79
2022/02/25 12:24:15;;;;;;;4.35;0.90;;;;;;;;;;5034120;28;20105;-79
2022/02/25 12:26:41;;;;;;;4.75;1.17;;;;;;;;;;5033850;28;20017;-78
2022/02/25 12:29:12;;;;;;;5.47;1.20;;;;;;;;;;5034119;28;20020;-77
2022/02/25 12:31:46;;;;;;;7.32;0.90;;;;;;;;;;5033595;28;20318;-76
2022/02/25 12:34:18;;;;;;;8.75;1.10;;;;;;;;;;5032611;28;20087;-79
2022/02/25 12:36:44;;;;;;;6.43;1.27;;;;;;;;;;5034153;28;20075;-79
2022/02/25 12:39:09;;;;;;;4.20;1.60;;;;;;;;;;5033060;28;20025;-79
2022/02/25 12:41:34;;;;;;;3.72;1.04;;;;;;;;;;5033958;28;20018;-78
2022/02/25 12:44:01;;;;;;;12.38;1.40;;;;;;;;;;5033554;28;20025;-78
2022/02/25 12:46:29;;;;;;;7.65;1.20;;;;;;;;;;5032298;28;20017;-79
2022/02/25 12:48:54;;;;;;;6.00;1.25;;;;;;;;;;5034112;28;20013;-79
2022/02/25 12:51:21;;;;;;;5.75;1.23;;;;;;;;;;5032645;28;20113;-79
2022/02/25 12:53:55;;;;;;;2.20;0.57;;;;;;;;;;5033759;28;20028;-78
2022/02/25 12:56:22;;;;;;;6.35;1.60;;;;;;;;;;5018024;28;20022;-78
2022/02/25 12:58:48;;;;;;;1.95;0.60;;;;;;;;;;5033707;28;20179;-79
2022/02/25 13:01:21;;;;;;;9.80;1.55;;;;;;;;;;5033653;28;20570;-78
2022/02/25 13:03:56;;;;;;;4.78;1.55;;;;;;;;;;5034194;28;20036;-79
2022/02/25 13:06:28;;;;;;;4.75;1.02;;;;;;;;;;5018098;28;20013;-79
2022/02/25 13:08:55;;;;;;;7.95;1.33;;;;;;;;;;5033661;28;20013;-78
2022/02/25 13:11:20;;;;;;;6.78;1.42;;;;;;;;;;5033322;28;20028;-78
2022/02/25 13:13:46;;;;;;;7.78;1.00;;;;;;;;;;5033281;28;20101;-78
2022/02/25 13:16:11;;;;;;;4.53;1.30;;;;;;;;;;5032254;28;20025;-77
2022/02/25 13:18:36;;;;;;;8.82;1.45;;;;;;;;;;5033417;28;20067;-77
2022/02/25 13:21:05;;;;;;;3.67;0.80;;;;;;;;;;5032999;28;20014;-77
2022/02/25 13:23:32;;;;;;;3.10;1.00;;;;;;;;;;5032364;28;20104;-78
2022/02/25 13:26:03;;;;;;;8.10;1.20;;;;;;;;;;5031470;28;20064;-77
2022/02/25 13:28:28;;;;;;;7.78;1.30;;;;;;;;;;5031410;28;20044;-79
2022/02/25 13:30:54;;;;;;;7.03;1.42;;;;;;;;;;5031411;28;20056;-78
2022/02/25 13:33:20;;;;;;;1.42;0.70;;;;;;;;;;5032894;28;20017;-76
2022/02/25 13:35:46;;;;;;;1.73;0.43;;;;;;;;;;5030784;28;20419;-78
2022/02/25 13:38:15;;;;;;;6.97;1.02;;;;;;;;;;5029573;28;20029;-77
2022/02/25 13:40:42;;;;;;;9.20;1.60;;;;;;;;;;5030237;28;20013;-76
2022/02/25 13:43:26;;;;;;;7.65;1.60;;;;;;;;;;5028130;28;20079;-78
2022/02/25 13:45:52;;;;;;;8.32;1.60;;;;;;;;;;5029660;28;20104;-78
2022/02/25 13:53:51;;;;;;;14.13;3.85;;;;;;;;;;5019594;28;20095;-77
2022/02/25 13:56:16;;;;;;;8.15;1.30;;;;;;;;;;5028883;28;20049;-79
2022/02/25 13:58:41;;;;;;;16.55;2.65;;;;;;;;;;5019852;28;20065;-78
2022/02/25 14:01:16;;;;;;;6.65;1.50;;;;;;;;;;5028064;28;20032;-79
2022/02/25 14:03:43;;;;;;;7.03;1.63;;;;;;;;;;5033793;28;20025;-79
2022/02/25 14:06:21;;;;;;;8.07;1.67;;;;;;;;;;5031650;28;20097;-79
2022/02/25 14:08:46;;;;;;;8.15;3.20;;;;;;;;;;5030675;28;20448;-79
2022/02/25 14:11:11;;;;;;;10.15;2.15;;;;;;;;;;5032945;28;20025;-79
2022/02/25 14:13:36;;;;;;;3.33;1.50;;;;;;;;;;5031062;28;20064;-78
2022/02/25 14:16:01;;;;;;;5.35;1.50;;;;;;;;;;5031126;28;20041;-78
2022/02/25 14:18:27;;;;;;;5.07;1.35;;;;;;;;;;5031527;28;20029;-78
2022/02/25 14:20:53;;;;;;;6.55;1.58;;;;;;;;;;5032522;28;20044;-78
2022/02/25 14:23:18;;;;;;;5.32;1.40;;;;;;;;;;5031822;28;20484;-79
2022/02/25 14:25:46;;;;;;;6.18;1.63;;;;;;;;;;5032684;28;20021;-80
2022/02/25 14:28:14;;;;;;;9.67;2.33;;;;;;;;;;5036284;28;20032;-77
2022/02/25 14:30:44;;;;;;;6.00;1.73;;;;;;;;;;5034818;28;20071;-80
2022/02/25 14:33:11;;;;;;;6.75;1.50;;;;;;;;;;5034476;28;20251;-79
2022/02/25 14:35:37;;;;;;;17.08;2.10;;;;;;;;;;5035010;28;20044;-80
2022/02/25 14:38:02;;;;;;;8.05;1.92;;;;;;;;;;5034482;28;20044;-80
2022/02/25 14:40:28;;;;;;;11.52;2.10;;;;;;;;;;5034314;28;20013;-79
2022/02/25 14:42:53;;;;;;;8.52;2.05;;;;;;;;;;5033684;28;20049;-79
2022/02/25 14:45:19;;;;;;;7.22;1.42;;;;;;;;;;5035298;28;20100;-80
2022/02/25 14:47:44;;;;;;;5.93;1.50;;;;;;;;;;5034775;28;20013;-80
2022/02/25 14:50:10;;;;;;;13.90;2.47;;;;;;;;;;5034212;28;20016;-79